sensor_id;sensor_type;location;lat;lon;timestamp;P1;durP1;ratioP1;P2;durP2;ratioP2
21546;SDS011;41275;51.912;4.388;2022-11-15T00:01:54;56.53;;;21.20;;
21546;SDS011;41275;51.912;4.388;2022-11-15T00:07:15;58.63;;;20.75;;
21546;SDS011;41275;51.912;4.388;2022-11-15T00:12:37;63.85;;;21.73;;
21546;SDS011;41275;51.912;4.388;2022-11-15T00:17:58;57.33;;;21.25;;
21546;SDS011;41275;51.912;4.388;2022-11-15T00:23:19;56.67;;;21.00;;
21546;SDS011;41275;51.912;4.388;2022-11-15T00:28:41;60.53;;;20.83;;
21546;SDS011;41275;51.912;4.388;2022-11-15T00:34:03;58.55;;;21.10;;
21546;SDS011;41275;51.912;4.388;2022-11-15T00:39:24;68.07;;;23.48;;
21546;SDS011;41275;51.912;4.388;2022-11-15T00:44:45;68.82;;;24.02;;
21546;SDS011;41275;51.912;4.388;2022-11-15T00:50:06;69.70;;;24.63;;
21546;SDS011;41275;51.912;4.388;2022-11-15T00:55:28;69.93;;;24.80;;
21546;SDS011;41275;51.912;4.388;2022-11-15T01:00:49;71.40;;;25.52;;
21546;SDS011;41275;51.912;4.388;2022-11-15T01:06:11;73.82;;;26.25;;
21546;SDS011;41275;51.912;4.388;2022-11-15T01:11:32;71.35;;;25.10;;
21546;SDS011;41275;51.912;4.388;2022-11-15T01:16:53;74.40;;;25.53;;
21546;SDS011;41275;51.912;4.388;2022-11-15T01:22:15;76.80;;;26.80;;
21546;SDS011;41275;51.912;4.388;2022-11-15T01:27:36;85.25;;;27.88;;
21546;SDS011;41275;51.912;4.388;2022-11-15T01:32:57;76.53;;;26.15;;
21546;SDS011;41275;51.912;4.388;2022-11-15T01:38:19;79.35;;;25.88;;
21546;SDS011;41275;51.912;4.388;2022-11-15T01:43:40;71.40;;;25.67;;
21546;SDS011;41275;51.912;4.388;2022-11-15T01:49:05;70.87;;;25.37;;
21546;SDS011;41275;51.912;4.388;2022-11-15T01:54:33;64.70;;;25.17;;
21546;SDS011;41275;51.912;4.388;2022-11-15T01:59:55;64.30;;;23.80;;
21546;SDS011;41275;51.912;4.388;2022-11-15T02:05:18;59.05;;;24.33;;
21546;SDS011;41275;51.912;4.388;2022-11-15T02:10:39;66.78;;;24.23;;
21546;SDS011;41275;51.912;4.388;2022-11-15T02:16:04;67.18;;;24.00;;
21546;SDS011;41275;51.912;4.388;2022-11-15T02:33:26;49.73;;;21.90;;
21546;SDS011;41275;51.912;4.388;2022-11-15T02:39:33;46.22;;;20.08;;
21546;SDS011;41275;51.912;4.388;2022-11-15T02:44:58;39.33;;;19.17;;
21546;SDS011;41275;51.912;4.388;2022-11-15T02:50:27;38.80;;;18.42;;
21546;SDS011;41275;51.912;4.388;2022-11-15T02:55:50;33.83;;;18.02;;
21546;SDS011;41275;51.912;4.388;2022-11-15T03:01:33;35.25;;;17.30;;
21546;SDS011;41275;51.912;4.388;2022-11-15T03:07:10;32.57;;;15.13;;
21546;SDS011;41275;51.912;4.388;2022-11-15T03:12:43;30.70;;;14.50;;
21546;SDS011;41275;51.912;4.388;2022-11-15T03:18:14;23.80;;;12.77;;
21546;SDS011;41275;51.912;4.388;2022-11-15T03:23:40;23.35;;;12.43;;
21546;SDS011;41275;51.912;4.388;2022-11-15T03:29:07;23.55;;;11.73;;
21546;SDS011;41275;51.912;4.388;2022-11-15T03:40:10;20.35;;;10.60;;
21546;SDS011;41275;51.912;4.388;2022-11-15T03:45:35;22.17;;;9.23;;
21546;SDS011;41275;51.912;4.388;2022-11-15T03:51:00;21.85;;;9.00;;
21546;SDS011;41275;51.912;4.388;2022-11-15T03:56:23;18.08;;;8.55;;
21546;SDS011;41275;51.912;4.388;2022-11-15T04:01:44;19.08;;;7.97;;
21546;SDS011;41275;51.912;4.388;2022-11-15T04:07:05;17.88;;;7.85;;
21546;SDS011;41275;51.912;4.388;2022-11-15T04:12:26;16.65;;;7.50;;
21546;SDS011;41275;51.912;4.388;2022-11-15T04:17:54;19.17;;;8.07;;
21546;SDS011;41275;51.912;4.388;2022-11-15T04:23:18;15.30;;;7.57;;
21546;SDS011;41275;51.912;4.388;2022-11-15T04:29:00;14.27;;;7.72;;
21546;SDS011;41275;51.912;4.388;2022-11-15T04:34:39;15.90;;;7.32;;
21546;SDS011;41275;51.912;4.388;2022-11-15T04:40:01;15.55;;;7.65;;
21546;SDS011;41275;51.912;4.388;2022-11-15T04:45:22;15.50;;;7.05;;
21546;SDS011;41275;51.912;4.388;2022-11-15T04:50:43;17.33;;;6.70;;
21546;SDS011;41275;51.912;4.388;2022-11-15T04:56:04;15.27;;;7.13;;
21546;SDS011;41275;51.912;4.388;2022-11-15T05:01:26;14.13;;;6.37;;
21546;SDS011;41275;51.912;4.388;2022-11-15T05:06:48;13.60;;;5.95;;
21546;SDS011;41275;51.912;4.388;2022-11-15T05:12:10;13.65;;;6.68;;
21546;SDS011;41275;51.912;4.388;2022-11-15T05:17:31;15.10;;;6.53;;
21546;SDS011;41275;51.912;4.388;2022-11-15T05:22:53;12.63;;;6.50;;
21546;SDS011;41275;51.912;4.388;2022-11-15T05:28:16;15.75;;;6.32;;
21546;SDS011;41275;51.912;4.388;2022-11-15T05:33:37;14.20;;;5.97;;
21546;SDS011;41275;51.912;4.388;2022-11-15T05:38:59;17.65;;;5.85;;
21546;SDS011;41275;51.912;4.388;2022-11-15T05:44:22;10.20;;;5.30;;
21546;SDS011;41275;51.912;4.388;2022-11-15T05:49:44;10.63;;;4.63;;
21546;SDS011;41275;51.912;4.388;2022-11-15T05:55:06;11.50;;;4.43;;
21546;SDS011;41275;51.912;4.388;2022-11-15T06:00:29;10.68;;;4.05;;
21546;SDS011;41275;51.912;4.388;2022-11-15T06:05:50;10.35;;;4.10;;
21546;SDS011;41275;51.912;4.388;2022-11-15T06:11:12;12.02;;;3.85;;
21546;SDS011;41275;51.912;4.388;2022-11-15T06:16:33;11.87;;;3.60;;
21546;SDS011;41275;51.912;4.388;2022-11-15T06:21:54;8.43;;;3.80;;
21546;SDS011;41275;51.912;4.388;2022-11-15T06:27:15;13.05;;;3.92;;
21546;SDS011;41275;51.912;4.388;2022-11-15T06:32:36;11.75;;;3.90;;
21546;SDS011;41275;51.912;4.388;2022-11-15T06:38:03;11.87;;;4.07;;
21546;SDS011;41275;51.912;4.388;2022-11-15T06:43:31;12.77;;;3.90;;
21546;SDS011;41275;51.912;4.388;2022-11-15T06:48:53;9.85;;;4.07;;
21546;SDS011;41275;51.912;4.388;2022-11-15T06:54:14;9.27;;;4.27;;
21546;SDS011;41275;51.912;4.388;2022-11-15T06:59:36;14.40;;;4.35;;
21546;SDS011;41275;51.912;4.388;2022-11-15T07:04:57;10.65;;;4.22;;
21546;SDS011;41275;51.912;4.388;2022-11-15T07:10:19;9.47;;;4.50;;
21546;SDS011;41275;51.912;4.388;2022-11-15T07:15:40;10.07;;;4.20;;
21546;SDS011;41275;51.912;4.388;2022-11-15T07:21:02;9.20;;;4.07;;
21546;SDS011;41275;51.912;4.388;2022-11-15T07:26:27;10.68;;;4.20;;
21546;SDS011;41275;51.912;4.388;2022-11-15T07:31:49;9.57;;;3.55;;
21546;SDS011;41275;51.912;4.388;2022-11-15T07:37:11;13.07;;;3.78;;
21546;SDS011;41275;51.912;4.388;2022-11-15T07:42:32;10.60;;;3.37;;
21546;SDS011;41275;51.912;4.388;2022-11-15T07:48:12;8.75;;;3.33;;
21546;SDS011;41275;51.912;4.388;2022-11-15T07:53:34;10.57;;;3.42;;
21546;SDS011;41275;51.912;4.388;2022-11-15T07:58:55;10.13;;;3.65;;
21546;SDS011;41275;51.912;4.388;2022-11-15T08:04:16;9.67;;;3.67;;
21546;SDS011;41275;51.912;4.388;2022-11-15T08:09:37;8.73;;;3.70;;
21546;SDS011;41275;51.912;4.388;2022-11-15T08:14:58;9.00;;;3.15;;
21546;SDS011;41275;51.912;4.388;2022-11-15T08:20:20;10.38;;;3.10;;
21546;SDS011;41275;51.912;4.388;2022-11-15T08:25:41;8.68;;;3.70;;
21546;SDS011;41275;51.912;4.388;2022-11-15T08:31:02;10.15;;;4.30;;
21546;SDS011;41275;51.912;4.388;2022-11-15T08:36:24;8.23;;;4.20;;
21546;SDS011;41275;51.912;4.388;2022-11-15T08:41:46;9.48;;;4.28;;
21546;SDS011;41275;51.912;4.388;2022-11-15T08:47:07;12.53;;;4.53;;
21546;SDS011;41275;51.912;4.388;2022-11-15T08:52:28;8.43;;;4.20;;
21546;SDS011;41275;51.912;4.388;2022-11-15T08:57:49;12.40;;;3.97;;
21546;SDS011;41275;51.912;4.388;2022-11-15T09:03:11;13.93;;;4.13;;
21546;SDS011;41275;51.912;4.388;2022-11-15T09:08:32;9.95;;;4.00;;
21546;SDS011;41275;51.912;4.388;2022-11-15T09:13:53;11.02;;;4.00;;
21546;SDS011;41275;51.912;4.388;2022-11-15T09:19:15;9.45;;;3.83;;
21546;SDS011;41275;51.912;4.388;2022-11-15T09:24:36;8.90;;;3.83;;
21546;SDS011;41275;51.912;4.388;2022-11-15T09:29:57;8.18;;;3.80;;
21546;SDS011;41275;51.912;4.388;2022-11-15T09:35:18;8.35;;;3.33;;
21546;SDS011;41275;51.912;4.388;2022-11-15T09:40:39;6.87;;;3.33;;
21546;SDS011;41275;51.912;4.388;2022-11-15T09:51:49;9.93;;;4.47;;
21546;SDS011;41275;51.912;4.388;2022-11-15T09:57:13;6.00;;;2.93;;
21546;SDS011;41275;51.912;4.388;2022-11-15T10:02:55;8.15;;;2.80;;
21546;SDS011;41275;51.912;4.388;2022-11-15T10:08:31;8.40;;;2.83;;
21546;SDS011;41275;51.912;4.388;2022-11-15T10:13:56;7.38;;;2.40;;
21546;SDS011;41275;51.912;4.388;2022-11-15T10:19:26;7.07;;;2.60;;
21546;SDS011;41275;51.912;4.388;2022-11-15T10:30:51;5.00;;;1.90;;
21546;SDS011;41275;51.912;4.388;2022-11-15T10:41:37;5.78;;;2.20;;
21546;SDS011;41275;51.912;4.388;2022-11-15T10:52:23;4.97;;;2.33;;
21546;SDS011;41275;51.912;4.388;2022-11-15T10:57:49;6.28;;;1.88;;
21546;SDS011;41275;51.912;4.388;2022-11-15T11:03:29;7.88;;;1.73;;
21546;SDS011;41275;51.912;4.388;2022-11-15T11:09:02;5.60;;;1.20;;
21546;SDS011;41275;51.912;4.388;2022-11-15T11:14:27;6.85;;;1.80;;
21546;SDS011;41275;51.912;4.388;2022-11-15T11:19:55;6.40;;;1.52;;
21546;SDS011;41275;51.912;4.388;2022-11-15T11:37:02;5.07;;;1.48;;
21546;SDS011;41275;51.912;4.388;2022-11-15T11:48:14;3.40;;;1.20;;
21546;SDS011;41275;51.912;4.388;2022-11-15T11:54:05;5.18;;;1.20;;
21546;SDS011;41275;51.912;4.388;2022-11-15T11:59:37;5.50;;;1.50;;
21546;SDS011;41275;51.912;4.388;2022-11-15T12:05:10;8.47;;;1.10;;
21546;SDS011;41275;51.912;4.388;2022-11-15T12:10:37;5.00;;;1.03;;
21546;SDS011;41275;51.912;4.388;2022-11-15T12:16:15;3.80;;;0.98;;
21546;SDS011;41275;51.912;4.388;2022-11-15T12:21:45;5.03;;;0.88;;
21546;SDS011;41275;51.912;4.388;2022-11-15T12:27:19;4.97;;;0.93;;
21546;SDS011;41275;51.912;4.388;2022-11-15T12:32:52;4.30;;;1.00;;
21546;SDS011;41275;51.912;4.388;2022-11-15T12:38:49;7.40;;;1.15;;
21546;SDS011;41275;51.912;4.388;2022-11-15T12:49:53;5.50;;;0.80;;
21546;SDS011;41275;51.912;4.388;2022-11-15T12:55:28;7.25;;;0.93;;
21546;SDS011;41275;51.912;4.388;2022-11-15T13:00:52;5.33;;;1.20;;
21546;SDS011;41275;51.912;4.388;2022-11-15T13:06:33;6.65;;;1.10;;
21546;SDS011;41275;51.912;4.388;2022-11-15T13:12:02;5.57;;;0.80;;
21546;SDS011;41275;51.912;4.388;2022-11-15T13:17:32;4.05;;;1.00;;
21546;SDS011;41275;51.912;4.388;2022-11-15T13:33:52;5.13;;;0.90;;
21546;SDS011;41275;51.912;4.388;2022-11-15T13:39:32;6.93;;;1.15;;
21546;SDS011;41275;51.912;4.388;2022-11-15T13:44:58;6.20;;;0.95;;
21546;SDS011;41275;51.912;4.388;2022-11-15T13:50:22;8.48;;;1.00;;
21546;SDS011;41275;51.912;4.388;2022-11-15T13:55:51;6.15;;;0.80;;
21546;SDS011;41275;51.912;4.388;2022-11-15T14:01:17;3.97;;;0.90;;
21546;SDS011;41275;51.912;4.388;2022-11-15T14:06:45;4.70;;;0.80;;
21546;SDS011;41275;51.912;4.388;2022-11-15T14:12:23;6.38;;;1.00;;
21546;SDS011;41275;51.912;4.388;2022-11-15T14:17:50;3.58;;;0.90;;
21546;SDS011;41275;51.912;4.388;2022-11-15T14:23:24;4.40;;;1.02;;
21546;SDS011;41275;51.912;4.388;2022-11-15T14:28:47;7.10;;;1.20;;
21546;SDS011;41275;51.912;4.388;2022-11-15T14:34:11;7.93;;;1.08;;
21546;SDS011;41275;51.912;4.388;2022-11-15T14:39:33;7.43;;;1.15;;
21546;SDS011;41275;51.912;4.388;2022-11-15T14:44:54;6.57;;;1.00;;
21546;SDS011;41275;51.912;4.388;2022-11-15T14:50:16;4.70;;;1.20;;
21546;SDS011;41275;51.912;4.388;2022-11-15T14:55:39;6.47;;;0.85;;
21546;SDS011;41275;51.912;4.388;2022-11-15T15:01:02;6.13;;;1.30;;
21546;SDS011;41275;51.912;4.388;2022-11-15T15:06:31;4.30;;;0.70;;
21546;SDS011;41275;51.912;4.388;2022-11-15T15:11:55;6.60;;;1.30;;
21546;SDS011;41275;51.912;4.388;2022-11-15T15:17:16;4.37;;;1.00;;
21546;SDS011;41275;51.912;4.388;2022-11-15T15:22:38;4.88;;;1.08;;
21546;SDS011;41275;51.912;4.388;2022-11-15T15:28:00;4.30;;;1.10;;
21546;SDS011;41275;51.912;4.388;2022-11-15T15:33:21;3.28;;;1.00;;
21546;SDS011;41275;51.912;4.388;2022-11-15T15:38:43;3.50;;;1.13;;
21546;SDS011;41275;51.912;4.388;2022-11-15T15:44:04;5.30;;;1.23;;
21546;SDS011;41275;51.912;4.388;2022-11-15T15:49:26;3.73;;;1.30;;
21546;SDS011;41275;51.912;4.388;2022-11-15T15:54:47;6.65;;;1.48;;
21546;SDS011;41275;51.912;4.388;2022-11-15T16:00:08;5.32;;;0.90;;
21546;SDS011;41275;51.912;4.388;2022-11-15T16:05:30;8.50;;;1.83;;
21546;SDS011;41275;51.912;4.388;2022-11-15T16:10:51;5.78;;;1.40;;
21546;SDS011;41275;51.912;4.388;2022-11-15T16:16:13;4.88;;;1.30;;
21546;SDS011;41275;51.912;4.388;2022-11-15T16:21:34;5.82;;;1.40;;
21546;SDS011;41275;51.912;4.388;2022-11-15T16:26:55;5.35;;;1.40;;
21546;SDS011;41275;51.912;4.388;2022-11-15T16:32:17;6.47;;;1.50;;
21546;SDS011;41275;51.912;4.388;2022-11-15T16:37:38;5.27;;;1.37;;
21546;SDS011;41275;51.912;4.388;2022-11-15T16:43:02;6.53;;;1.50;;
21546;SDS011;41275;51.912;4.388;2022-11-15T16:48:26;5.40;;;1.60;;
21546;SDS011;41275;51.912;4.388;2022-11-15T16:53:48;4.65;;;1.60;;
21546;SDS011;41275;51.912;4.388;2022-11-15T16:59:13;6.80;;;1.88;;
21546;SDS011;41275;51.912;4.388;2022-11-15T17:04:36;9.17;;;1.97;;
21546;SDS011;41275;51.912;4.388;2022-11-15T17:09:58;6.57;;;1.83;;
21546;SDS011;41275;51.912;4.388;2022-11-15T17:15:19;5.97;;;2.13;;
21546;SDS011;41275;51.912;4.388;2022-11-15T17:20:40;5.25;;;1.90;;
21546;SDS011;41275;51.912;4.388;2022-11-15T17:26:03;5.13;;;2.03;;
21546;SDS011;41275;51.912;4.388;2022-11-15T17:31:26;5.67;;;1.83;;
21546;SDS011;41275;51.912;4.388;2022-11-15T17:36:53;5.90;;;2.10;;
21546;SDS011;41275;51.912;4.388;2022-11-15T17:42:16;8.07;;;1.93;;
21546;SDS011;41275;51.912;4.388;2022-11-15T17:47:37;4.97;;;1.90;;
21546;SDS011;41275;51.912;4.388;2022-11-15T17:52:59;6.20;;;2.20;;
21546;SDS011;41275;51.912;4.388;2022-11-15T17:58:20;4.85;;;2.15;;
21546;SDS011;41275;51.912;4.388;2022-11-15T18:03:42;5.00;;;2.13;;
21546;SDS011;41275;51.912;4.388;2022-11-15T18:09:03;5.07;;;1.80;;
21546;SDS011;41275;51.912;4.388;2022-11-15T18:14:25;6.03;;;2.53;;
21546;SDS011;41275;51.912;4.388;2022-11-15T18:19:46;5.43;;;2.67;;
21546;SDS011;41275;51.912;4.388;2022-11-15T18:25:08;5.50;;;2.43;;
21546;SDS011;41275;51.912;4.388;2022-11-15T18:30:30;4.77;;;2.30;;
21546;SDS011;41275;51.912;4.388;2022-11-15T18:36:01;4.68;;;2.55;;
21546;SDS011;41275;51.912;4.388;2022-11-15T18:41:26;4.63;;;3.03;;
21546;SDS011;41275;51.912;4.388;2022-11-15T18:46:48;6.10;;;2.80;;
21546;SDS011;41275;51.912;4.388;2022-11-15T18:52:10;4.87;;;3.30;;
21546;SDS011;41275;51.912;4.388;2022-11-15T18:57:31;4.97;;;2.55;;
21546;SDS011;41275;51.912;4.388;2022-11-15T19:02:53;5.03;;;2.45;;
21546;SDS011;41275;51.912;4.388;2022-11-15T19:08:14;6.15;;;2.58;;
21546;SDS011;41275;51.912;4.388;2022-11-15T19:13:35;7.50;;;3.40;;
21546;SDS011;41275;51.912;4.388;2022-11-15T19:18:58;6.13;;;3.10;;
21546;SDS011;41275;51.912;4.388;2022-11-15T19:24:23;7.20;;;3.22;;
21546;SDS011;41275;51.912;4.388;2022-11-15T19:29:46;5.10;;;2.63;;
21546;SDS011;41275;51.912;4.388;2022-11-15T19:35:07;6.78;;;3.35;;
21546;SDS011;41275;51.912;4.388;2022-11-15T19:40:31;5.10;;;3.28;;
21546;SDS011;41275;51.912;4.388;2022-11-15T19:45:53;7.07;;;4.20;;
21546;SDS011;41275;51.912;4.388;2022-11-15T19:51:16;6.95;;;4.15;;
21546;SDS011;41275;51.912;4.388;2022-11-15T19:57:09;7.97;;;4.50;;
21546;SDS011;41275;51.912;4.388;2022-11-15T20:02:33;13.15;;;6.50;;
21546;SDS011;41275;51.912;4.388;2022-11-15T20:07:54;8.43;;;4.37;;
21546;SDS011;41275;51.912;4.388;2022-11-15T20:13:15;8.63;;;4.32;;
21546;SDS011;41275;51.912;4.388;2022-11-15T20:18:37;5.60;;;3.60;;
21546;SDS011;41275;51.912;4.388;2022-11-15T20:29:48;6.47;;;3.03;;
21546;SDS011;41275;51.912;4.388;2022-11-15T20:35:17;11.20;;;5.35;;
21546;SDS011;41275;51.912;4.388;2022-11-15T20:40:43;18.67;;;6.37;;
21546;SDS011;41275;51.912;4.388;2022-11-15T20:46:06;6.30;;;4.07;;
21546;SDS011;41275;51.912;4.388;2022-11-15T20:51:28;6.43;;;3.80;;
21546;SDS011;41275;51.912;4.388;2022-11-15T20:56:49;10.93;;;6.40;;
21546;SDS011;41275;51.912;4.388;2022-11-15T21:02:11;9.57;;;5.40;;
21546;SDS011;41275;51.912;4.388;2022-11-15T21:07:33;7.28;;;3.60;;
21546;SDS011;41275;51.912;4.388;2022-11-15T21:12:55;5.67;;;3.90;;
21546;SDS011;41275;51.912;4.388;2022-11-15T21:18:16;6.47;;;3.85;;
21546;SDS011;41275;51.912;4.388;2022-11-15T21:30:08;5.72;;;3.40;;
21546;SDS011;41275;51.912;4.388;2022-11-15T21:35:38;4.22;;;2.97;;
21546;SDS011;41275;51.912;4.388;2022-11-15T21:41:01;7.80;;;4.03;;
21546;SDS011;41275;51.912;4.388;2022-11-15T21:46:23;8.38;;;4.32;;
21546;SDS011;41275;51.912;4.388;2022-11-15T21:51:45;6.60;;;3.63;;
21546;SDS011;41275;51.912;4.388;2022-11-15T21:57:06;5.70;;;3.60;;
21546;SDS011;41275;51.912;4.388;2022-11-15T22:02:27;5.00;;;3.22;;
21546;SDS011;41275;51.912;4.388;2022-11-15T22:08:50;8.10;;;4.90;;
21546;SDS011;41275;51.912;4.388;2022-11-15T22:14:12;5.22;;;3.40;;
21546;SDS011;41275;51.912;4.388;2022-11-15T22:19:33;6.47;;;3.67;;
21546;SDS011;41275;51.912;4.388;2022-11-15T22:24:54;8.10;;;4.38;;
21546;SDS011;41275;51.912;4.388;2022-11-15T22:30:16;7.50;;;4.32;;
21546;SDS011;41275;51.912;4.388;2022-11-15T22:35:38;10.82;;;4.78;;
21546;SDS011;41275;51.912;4.388;2022-11-15T22:40:59;6.73;;;4.67;;
21546;SDS011;41275;51.912;4.388;2022-11-15T22:46:22;7.78;;;4.40;;
21546;SDS011;41275;51.912;4.388;2022-11-15T22:51:43;7.38;;;4.18;;
21546;SDS011;41275;51.912;4.388;2022-11-15T22:57:04;6.73;;;3.80;;
21546;SDS011;41275;51.912;4.388;2022-11-15T23:02:25;6.53;;;3.58;;
21546;SDS011;41275;51.912;4.388;2022-11-15T23:07:47;6.57;;;3.65;;
21546;SDS011;41275;51.912;4.388;2022-11-15T23:13:10;6.00;;;3.60;;
21546;SDS011;41275;51.912;4.388;2022-11-15T23:18:39;4.82;;;3.25;;
21546;SDS011;41275;51.912;4.388;2022-11-15T23:24:01;5.53;;;3.43;;
21546;SDS011;41275;51.912;4.388;2022-11-15T23:29:24;6.05;;;3.70;;
21546;SDS011;41275;51.912;4.388;2022-11-15T23:34:47;6.43;;;3.80;;
21546;SDS011;41275;51.912;4.388;2022-11-15T23:40:08;6.22;;;3.75;;
21546;SDS011;41275;51.912;4.388;2022-11-15T23:45:31;8.80;;;3.92;;
21546;SDS011;41275;51.912;4.388;2022-11-15T23:50:52;7.20;;;3.87;;
21546;SDS011;41275;51.912;4.388;2022-11-15T23:56:15;7.60;;;4.00;;
